Aviation Digital Data Service (ADDS)

Output produced by TAFs form (1130 UTC 19 January 2018)
found at http://www.aviationweather.gov/adds/tafs/
 
RJSS 191100Z 02005KT 350V070 9999 FEW030 BKN/// 01/M06 Q1020
TAF RJSS 191105Z 1912/2018 02005KT 9999 FEW030 
     BECMG 1912/1914 32004KT 
     BECMG 2000/2003 14008KT 
     BECMG 2009/2012 28004KT